sensor_id;sensor_type;location;lat;lon;timestamp;P1;durP1;ratioP1;P2;durP2;ratioP2
39266;SDS011;24967;51.154;13.812;2023-03-29T00:01:23;4.00;;;2.50;;
39266;SDS011;24967;51.154;13.812;2023-03-29T00:03:54;4.43;;;2.90;;
39266;SDS011;24967;51.154;13.812;2023-03-29T00:06:21;6.22;;;3.25;;
39266;SDS011;24967;51.154;13.812;2023-03-29T00:08:48;8.82;;;3.33;;
39266;SDS011;24967;51.154;13.812;2023-03-29T00:11:18;4.65;;;2.88;;
39266;SDS011;24967;51.154;13.812;2023-03-29T00:13:45;5.90;;;2.90;;
39266;SDS011;24967;51.154;13.812;2023-03-29T00:16:13;6.32;;;2.70;;
39266;SDS011;24967;51.154;13.812;2023-03-29T00:18:40;4.10;;;3.38;;
39266;SDS011;24967;51.154;13.812;2023-03-29T00:21:06;5.15;;;2.80;;
39266;SDS011;24967;51.154;13.812;2023-03-29T00:23:33;6.53;;;3.40;;
39266;SDS011;24967;51.154;13.812;2023-03-29T00:25:59;5.80;;;2.85;;
39266;SDS011;24967;51.154;13.812;2023-03-29T00:28:26;6.28;;;3.00;;
39266;SDS011;24967;51.154;13.812;2023-03-29T00:30:53;5.18;;;2.70;;
39266;SDS011;24967;51.154;13.812;2023-03-29T00:33:20;5.60;;;2.60;;
39266;SDS011;24967;51.154;13.812;2023-03-29T00:35:47;4.78;;;2.63;;
39266;SDS011;24967;51.154;13.812;2023-03-29T00:38:14;6.85;;;2.70;;
39266;SDS011;24967;51.154;13.812;2023-03-29T00:40:41;3.55;;;2.65;;
39266;SDS011;24967;51.154;13.812;2023-03-29T00:43:09;7.65;;;2.80;;
39266;SDS011;24967;51.154;13.812;2023-03-29T00:45:36;5.63;;;2.80;;
39266;SDS011;24967;51.154;13.812;2023-03-29T00:48:04;6.72;;;2.42;;
39266;SDS011;24967;51.154;13.812;2023-03-29T00:50:34;5.72;;;2.53;;
39266;SDS011;24967;51.154;13.812;2023-03-29T00:53:05;4.60;;;2.25;;
39266;SDS011;24967;51.154;13.812;2023-03-29T00:55:35;6.78;;;2.38;;
39266;SDS011;24967;51.154;13.812;2023-03-29T00:58:05;4.30;;;2.20;;
39266;SDS011;24967;51.154;13.812;2023-03-29T01:00:38;5.80;;;2.60;;
39266;SDS011;24967;51.154;13.812;2023-03-29T01:03:10;5.75;;;3.28;;
39266;SDS011;24967;51.154;13.812;2023-03-29T01:05:40;4.35;;;2.30;;
39266;SDS011;24967;51.154;13.812;2023-03-29T01:08:11;6.40;;;2.63;;
39266;SDS011;24967;51.154;13.812;2023-03-29T01:13:10;7.90;;;2.70;;
39266;SDS011;24967;51.154;13.812;2023-03-29T01:15:43;5.00;;;2.85;;
39266;SDS011;24967;51.154;13.812;2023-03-29T01:18:10;5.35;;;2.35;;
39266;SDS011;24967;51.154;13.812;2023-03-29T01:20:51;6.82;;;2.40;;
39266;SDS011;24967;51.154;13.812;2023-03-29T01:23:34;4.72;;;2.40;;
39266;SDS011;24967;51.154;13.812;2023-03-29T01:26:16;4.18;;;1.75;;
39266;SDS011;24967;51.154;13.812;2023-03-29T01:28:51;3.95;;;1.85;;
39266;SDS011;24967;51.154;13.812;2023-03-29T01:31:23;6.75;;;1.60;;
39266;SDS011;24967;51.154;13.812;2023-03-29T01:33:55;6.35;;;2.20;;
39266;SDS011;24967;51.154;13.812;2023-03-29T01:36:26;2.70;;;1.90;;
39266;SDS011;24967;51.154;13.812;2023-03-29T01:38:59;6.38;;;2.10;;
39266;SDS011;24967;51.154;13.812;2023-03-29T01:41:31;5.25;;;2.10;;
39266;SDS011;24967;51.154;13.812;2023-03-29T01:44:05;4.78;;;2.00;;
39266;SDS011;24967;51.154;13.812;2023-03-29T01:46:37;3.30;;;1.73;;
39266;SDS011;24967;51.154;13.812;2023-03-29T01:49:10;7.82;;;2.30;;
39266;SDS011;24967;51.154;13.812;2023-03-29T01:51:40;4.65;;;1.75;;
39266;SDS011;24967;51.154;13.812;2023-03-29T01:54:13;6.53;;;1.67;;
39266;SDS011;24967;51.154;13.812;2023-03-29T01:56:43;3.47;;;2.00;;
39266;SDS011;24967;51.154;13.812;2023-03-29T01:59:14;3.53;;;1.77;;
39266;SDS011;24967;51.154;13.812;2023-03-29T02:01:45;4.47;;;2.10;;
39266;SDS011;24967;51.154;13.812;2023-03-29T02:06:43;4.93;;;1.75;;
39266;SDS011;24967;51.154;13.812;2023-03-29T02:09:11;2.20;;;1.67;;
39266;SDS011;24967;51.154;13.812;2023-03-29T02:11:38;2.22;;;1.70;;
39266;SDS011;24967;51.154;13.812;2023-03-29T02:14:07;3.90;;;2.22;;
39266;SDS011;24967;51.154;13.812;2023-03-29T02:16:35;3.88;;;1.75;;
39266;SDS011;24967;51.154;13.812;2023-03-29T02:19:03;3.30;;;1.65;;
39266;SDS011;24967;51.154;13.812;2023-03-29T02:21:34;6.65;;;1.92;;
39266;SDS011;24967;51.154;13.812;2023-03-29T02:24:04;5.05;;;1.70;;
39266;SDS011;24967;51.154;13.812;2023-03-29T02:26:34;4.43;;;1.90;;
39266;SDS011;24967;51.154;13.812;2023-03-29T02:29:00;5.20;;;1.85;;
39266;SDS011;24967;51.154;13.812;2023-03-29T02:31:27;4.72;;;2.20;;
39266;SDS011;24967;51.154;13.812;2023-03-29T02:34:03;4.53;;;1.88;;
39266;SDS011;24967;51.154;13.812;2023-03-29T02:36:35;3.33;;;1.58;;
39266;SDS011;24967;51.154;13.812;2023-03-29T02:39:05;2.75;;;1.70;;
39266;SDS011;24967;51.154;13.812;2023-03-29T02:41:34;4.38;;;1.83;;
39266;SDS011;24967;51.154;13.812;2023-03-29T02:44:02;4.80;;;2.00;;
39266;SDS011;24967;51.154;13.812;2023-03-29T02:46:32;2.80;;;1.92;;
39266;SDS011;24967;51.154;13.812;2023-03-29T02:48:59;3.60;;;1.73;;
39266;SDS011;24967;51.154;13.812;2023-03-29T02:51:28;4.90;;;1.45;;
39266;SDS011;24967;51.154;13.812;2023-03-29T02:53:58;4.78;;;1.60;;
39266;SDS011;24967;51.154;13.812;2023-03-29T02:56:28;7.00;;;2.37;;
39266;SDS011;24967;51.154;13.812;2023-03-29T02:58:54;6.53;;;1.83;;
39266;SDS011;24967;51.154;13.812;2023-03-29T03:01:21;2.58;;;1.73;;
39266;SDS011;24967;51.154;13.812;2023-03-29T03:03:47;6.28;;;1.80;;
39266;SDS011;24967;51.154;13.812;2023-03-29T03:06:14;4.72;;;2.38;;
39266;SDS011;24967;51.154;13.812;2023-03-29T03:08:42;2.13;;;1.65;;
39266;SDS011;24967;51.154;13.812;2023-03-29T03:11:09;4.47;;;2.00;;
39266;SDS011;24967;51.154;13.812;2023-03-29T03:13:35;9.02;;;2.47;;
39266;SDS011;24967;51.154;13.812;2023-03-29T03:16:02;5.75;;;2.75;;
39266;SDS011;24967;51.154;13.812;2023-03-29T03:18:28;4.28;;;2.15;;
39266;SDS011;24967;51.154;13.812;2023-03-29T03:20:55;4.88;;;1.92;;
39266;SDS011;24967;51.154;13.812;2023-03-29T03:23:23;5.72;;;1.83;;
39266;SDS011;24967;51.154;13.812;2023-03-29T03:25:51;6.00;;;2.10;;
39266;SDS011;24967;51.154;13.812;2023-03-29T03:28:19;8.07;;;2.17;;
39266;SDS011;24967;51.154;13.812;2023-03-29T03:30:48;4.72;;;2.17;;
39266;SDS011;24967;51.154;13.812;2023-03-29T03:33:15;7.22;;;2.70;;
39266;SDS011;24967;51.154;13.812;2023-03-29T03:35:42;4.72;;;1.88;;
39266;SDS011;24967;51.154;13.812;2023-03-29T03:38:10;6.72;;;1.88;;
39266;SDS011;24967;51.154;13.812;2023-03-29T03:40:36;3.38;;;1.85;;
39266;SDS011;24967;51.154;13.812;2023-03-29T03:43:04;4.05;;;2.05;;
39266;SDS011;24967;51.154;13.812;2023-03-29T03:45:31;5.78;;;1.98;;
39266;SDS011;24967;51.154;13.812;2023-03-29T03:47:57;5.05;;;1.88;;
39266;SDS011;24967;51.154;13.812;2023-03-29T03:50:24;5.03;;;2.17;;
39266;SDS011;24967;51.154;13.812;2023-03-29T03:52:51;3.60;;;2.17;;
39266;SDS011;24967;51.154;13.812;2023-03-29T03:55:17;5.80;;;2.33;;
39266;SDS011;24967;51.154;13.812;2023-03-29T03:57:43;7.80;;;3.33;;
39266;SDS011;24967;51.154;13.812;2023-03-29T04:00:13;3.85;;;2.08;;
39266;SDS011;24967;51.154;13.812;2023-03-29T04:02:45;5.80;;;2.45;;
39266;SDS011;24967;51.154;13.812;2023-03-29T04:05:13;6.18;;;2.17;;
39266;SDS011;24967;51.154;13.812;2023-03-29T04:07:41;4.25;;;2.13;;
39266;SDS011;24967;51.154;13.812;2023-03-29T04:10:08;3.70;;;2.10;;
39266;SDS011;24967;51.154;13.812;2023-03-29T04:12:35;3.58;;;2.10;;
39266;SDS011;24967;51.154;13.812;2023-03-29T04:15:02;6.88;;;1.80;;
39266;SDS011;24967;51.154;13.812;2023-03-29T04:17:31;5.95;;;1.92;;
39266;SDS011;24967;51.154;13.812;2023-03-29T04:19:57;5.00;;;1.70;;
39266;SDS011;24967;51.154;13.812;2023-03-29T04:22:25;3.88;;;1.65;;
39266;SDS011;24967;51.154;13.812;2023-03-29T04:24:51;7.78;;;2.05;;
39266;SDS011;24967;51.154;13.812;2023-03-29T04:27:18;4.05;;;2.00;;
39266;SDS011;24967;51.154;13.812;2023-03-29T04:29:45;5.38;;;2.15;;
39266;SDS011;24967;51.154;13.812;2023-03-29T04:32:11;7.85;;;2.20;;
39266;SDS011;24967;51.154;13.812;2023-03-29T04:34:39;4.85;;;2.28;;
39266;SDS011;24967;51.154;13.812;2023-03-29T04:37:05;3.80;;;2.10;;
39266;SDS011;24967;51.154;13.812;2023-03-29T04:39:34;7.40;;;2.30;;
39266;SDS011;24967;51.154;13.812;2023-03-29T04:42:00;5.15;;;2.30;;
39266;SDS011;24967;51.154;13.812;2023-03-29T04:44:28;5.45;;;2.45;;
39266;SDS011;24967;51.154;13.812;2023-03-29T04:46:54;9.88;;;2.40;;
39266;SDS011;24967;51.154;13.812;2023-03-29T04:49:20;4.93;;;2.45;;
39266;SDS011;24967;51.154;13.812;2023-03-29T04:51:48;10.18;;;2.65;;
39266;SDS011;24967;51.154;13.812;2023-03-29T04:54:15;7.20;;;3.05;;
39266;SDS011;24967;51.154;13.812;2023-03-29T04:56:41;5.03;;;2.70;;
39266;SDS011;24967;51.154;13.812;2023-03-29T04:59:08;5.45;;;2.90;;
39266;SDS011;24967;51.154;13.812;2023-03-29T05:01:34;11.10;;;3.72;;
39266;SDS011;24967;51.154;13.812;2023-03-29T05:04:01;7.10;;;2.65;;
39266;SDS011;24967;51.154;13.812;2023-03-29T05:06:27;8.77;;;4.07;;
39266;SDS011;24967;51.154;13.812;2023-03-29T05:08:56;7.90;;;3.20;;
39266;SDS011;24967;51.154;13.812;2023-03-29T05:11:23;8.93;;;3.28;;
39266;SDS011;24967;51.154;13.812;2023-03-29T05:13:50;7.20;;;3.05;;
39266;SDS011;24967;51.154;13.812;2023-03-29T05:16:16;4.20;;;3.58;;
39266;SDS011;24967;51.154;13.812;2023-03-29T05:18:43;5.88;;;3.30;;
39266;SDS011;24967;51.154;13.812;2023-03-29T05:21:09;4.70;;;3.20;;
39266;SDS011;24967;51.154;13.812;2023-03-29T05:23:36;8.88;;;3.13;;
39266;SDS011;24967;51.154;13.812;2023-03-29T05:26:05;4.72;;;3.08;;
39266;SDS011;24967;51.154;13.812;2023-03-29T05:28:33;13.93;;;4.22;;
39266;SDS011;24967;51.154;13.812;2023-03-29T05:31:01;7.53;;;3.40;;
39266;SDS011;24967;51.154;13.812;2023-03-29T05:33:29;6.20;;;3.25;;
39266;SDS011;24967;51.154;13.812;2023-03-29T05:35:59;4.55;;;2.97;;
39266;SDS011;24967;51.154;13.812;2023-03-29T05:38:26;8.10;;;2.83;;
39266;SDS011;24967;51.154;13.812;2023-03-29T05:40:53;11.25;;;3.17;;
39266;SDS011;24967;51.154;13.812;2023-03-29T05:43:21;6.55;;;2.78;;
39266;SDS011;24967;51.154;13.812;2023-03-29T05:45:48;6.78;;;2.90;;
39266;SDS011;24967;51.154;13.812;2023-03-29T05:48:14;4.88;;;3.03;;
39266;SDS011;24967;51.154;13.812;2023-03-29T05:50:45;8.60;;;3.63;;
39266;SDS011;24967;51.154;13.812;2023-03-29T05:53:12;4.70;;;2.85;;
39266;SDS011;24967;51.154;13.812;2023-03-29T05:55:39;10.32;;;3.47;;
39266;SDS011;24967;51.154;13.812;2023-03-29T05:58:06;8.95;;;3.42;;
39266;SDS011;24967;51.154;13.812;2023-03-29T06:00:35;6.38;;;3.47;;
39266;SDS011;24967;51.154;13.812;2023-03-29T06:03:02;7.03;;;3.30;;
39266;SDS011;24967;51.154;13.812;2023-03-29T06:05:29;12.05;;;2.97;;
39266;SDS011;24967;51.154;13.812;2023-03-29T06:07:56;10.27;;;3.13;;
39266;SDS011;24967;51.154;13.812;2023-03-29T06:10:24;9.00;;;3.15;;
39266;SDS011;24967;51.154;13.812;2023-03-29T06:12:52;6.88;;;2.95;;
39266;SDS011;24967;51.154;13.812;2023-03-29T06:15:19;7.47;;;2.92;;
39266;SDS011;24967;51.154;13.812;2023-03-29T06:17:48;5.97;;;3.10;;
39266;SDS011;24967;51.154;13.812;2023-03-29T06:20:15;7.35;;;2.53;;
39266;SDS011;24967;51.154;13.812;2023-03-29T06:22:42;6.40;;;3.08;;
39266;SDS011;24967;51.154;13.812;2023-03-29T06:25:10;5.93;;;2.55;;
39266;SDS011;24967;51.154;13.812;2023-03-29T06:27:38;8.15;;;3.00;;
39266;SDS011;24967;51.154;13.812;2023-03-29T06:30:05;5.22;;;2.55;;
39266;SDS011;24967;51.154;13.812;2023-03-29T06:32:32;7.63;;;2.72;;
39266;SDS011;24967;51.154;13.812;2023-03-29T06:35:00;5.35;;;2.15;;
39266;SDS011;24967;51.154;13.812;2023-03-29T06:37:28;5.43;;;2.30;;
39266;SDS011;24967;51.154;13.812;2023-03-29T06:39:55;11.32;;;3.00;;
39266;SDS011;24967;51.154;13.812;2023-03-29T06:42:23;8.15;;;3.70;;
39266;SDS011;24967;51.154;13.812;2023-03-29T06:44:50;6.43;;;2.70;;
39266;SDS011;24967;51.154;13.812;2023-03-29T06:47:17;5.47;;;2.55;;
39266;SDS011;24967;51.154;13.812;2023-03-29T06:49:44;6.32;;;2.50;;
39266;SDS011;24967;51.154;13.812;2023-03-29T06:52:12;7.63;;;3.85;;
39266;SDS011;24967;51.154;13.812;2023-03-29T06:54:39;9.32;;;3.05;;
39266;SDS011;24967;51.154;13.812;2023-03-29T06:57:06;5.13;;;2.40;;
39266;SDS011;24967;51.154;13.812;2023-03-29T06:59:32;5.13;;;2.38;;
39266;SDS011;24967;51.154;13.812;2023-03-29T07:01:59;3.42;;;2.03;;
39266;SDS011;24967;51.154;13.812;2023-03-29T07:04:26;6.15;;;2.95;;
39266;SDS011;24967;51.154;13.812;2023-03-29T07:06:53;7.13;;;2.47;;
39266;SDS011;24967;51.154;13.812;2023-03-29T07:09:27;4.10;;;2.45;;
39266;SDS011;24967;51.154;13.812;2023-03-29T07:11:54;4.70;;;2.40;;
39266;SDS011;24967;51.154;13.812;2023-03-29T07:14:21;7.00;;;2.30;;
39266;SDS011;24967;51.154;13.812;2023-03-29T07:16:50;2.70;;;1.95;;
39266;SDS011;24967;51.154;13.812;2023-03-29T07:19:16;4.05;;;2.17;;
39266;SDS011;24967;51.154;13.812;2023-03-29T07:21:46;7.88;;;2.20;;
39266;SDS011;24967;51.154;13.812;2023-03-29T07:24:13;6.50;;;1.90;;
39266;SDS011;24967;51.154;13.812;2023-03-29T07:26:41;6.03;;;2.35;;
39266;SDS011;24967;51.154;13.812;2023-03-29T07:29:07;3.25;;;2.25;;
39266;SDS011;24967;51.154;13.812;2023-03-29T07:31:34;4.88;;;2.30;;
39266;SDS011;24967;51.154;13.812;2023-03-29T07:34:05;5.22;;;2.03;;
39266;SDS011;24967;51.154;13.812;2023-03-29T07:36:34;5.13;;;1.98;;
39266;SDS011;24967;51.154;13.812;2023-03-29T07:39:02;5.68;;;2.30;;
39266;SDS011;24967;51.154;13.812;2023-03-29T07:41:29;3.53;;;2.17;;
39266;SDS011;24967;51.154;13.812;2023-03-29T07:43:57;4.72;;;2.08;;
39266;SDS011;24967;51.154;13.812;2023-03-29T07:46:28;6.60;;;2.40;;
39266;SDS011;24967;51.154;13.812;2023-03-29T07:48:55;4.43;;;2.10;;
39266;SDS011;24967;51.154;13.812;2023-03-29T07:51:22;3.97;;;2.20;;
39266;SDS011;24967;51.154;13.812;2023-03-29T07:53:49;4.00;;;1.90;;
39266;SDS011;24967;51.154;13.812;2023-03-29T07:56:15;3.88;;;1.70;;
39266;SDS011;24967;51.154;13.812;2023-03-29T07:58:41;6.07;;;2.03;;
39266;SDS011;24967;51.154;13.812;2023-03-29T08:01:09;5.47;;;2.65;;
39266;SDS011;24967;51.154;13.812;2023-03-29T08:03:39;3.88;;;2.30;;
39266;SDS011;24967;51.154;13.812;2023-03-29T08:06:06;2.78;;;2.13;;
39266;SDS011;24967;51.154;13.812;2023-03-29T08:08:33;5.93;;;2.58;;
39266;SDS011;24967;51.154;13.812;2023-03-29T08:11:00;5.53;;;2.60;;
39266;SDS011;24967;51.154;13.812;2023-03-29T08:13:27;4.57;;;2.90;;
39266;SDS011;24967;51.154;13.812;2023-03-29T08:15:53;6.85;;;3.78;;
39266;SDS011;24967;51.154;13.812;2023-03-29T08:18:22;5.28;;;2.80;;
39266;SDS011;24967;51.154;13.812;2023-03-29T08:20:48;4.35;;;2.70;;
39266;SDS011;24967;51.154;13.812;2023-03-29T08:23:15;6.90;;;2.80;;
39266;SDS011;24967;51.154;13.812;2023-03-29T08:25:43;5.95;;;2.67;;
39266;SDS011;24967;51.154;13.812;2023-03-29T08:28:11;4.70;;;2.95;;
39266;SDS011;24967;51.154;13.812;2023-03-29T08:30:39;4.47;;;2.30;;
39266;SDS011;24967;51.154;13.812;2023-03-29T08:33:24;5.05;;;2.78;;
39266;SDS011;24967;51.154;13.812;2023-03-29T08:35:58;5.05;;;2.67;;
39266;SDS011;24967;51.154;13.812;2023-03-29T08:38:29;4.85;;;2.92;;
39266;SDS011;24967;51.154;13.812;2023-03-29T08:40:58;5.75;;;2.70;;
39266;SDS011;24967;51.154;13.812;2023-03-29T08:46:25;7.95;;;2.40;;
39266;SDS011;24967;51.154;13.812;2023-03-29T08:49:04;5.18;;;2.90;;
39266;SDS011;24967;51.154;13.812;2023-03-29T08:51:37;5.90;;;2.63;;
39266;SDS011;24967;51.154;13.812;2023-03-29T08:57:13;5.03;;;2.70;;
39266;SDS011;24967;51.154;13.812;2023-03-29T08:59:45;9.93;;;2.80;;
39266;SDS011;24967;51.154;13.812;2023-03-29T09:02:18;4.43;;;2.83;;
39266;SDS011;24967;51.154;13.812;2023-03-29T09:04:51;9.07;;;3.03;;
39266;SDS011;24967;51.154;13.812;2023-03-29T09:07:24;7.22;;;3.35;;
39266;SDS011;24967;51.154;13.812;2023-03-29T09:09:53;10.13;;;2.90;;
39266;SDS011;24967;51.154;13.812;2023-03-29T09:15:42;3.45;;;2.95;;
39266;SDS011;24967;51.154;13.812;2023-03-29T09:18:20;4.55;;;3.03;;
39266;SDS011;24967;51.154;13.812;2023-03-29T09:21:12;5.68;;;3.30;;
39266;SDS011;24967;51.154;13.812;2023-03-29T09:23:56;8.73;;;3.47;;
39266;SDS011;24967;51.154;13.812;2023-03-29T09:26:34;5.95;;;3.20;;
39266;SDS011;24967;51.154;13.812;2023-03-29T09:29:16;3.80;;;3.22;;
39266;SDS011;24967;51.154;13.812;2023-03-29T09:31:59;4.65;;;3.15;;
39266;SDS011;24967;51.154;13.812;2023-03-29T09:34:46;6.22;;;3.05;;
39266;SDS011;24967;51.154;13.812;2023-03-29T09:37:23;6.68;;;3.15;;
39266;SDS011;24967;51.154;13.812;2023-03-29T09:39:55;5.30;;;2.97;;
39266;SDS011;24967;51.154;13.812;2023-03-29T09:42:23;4.22;;;3.10;;
39266;SDS011;24967;51.154;13.812;2023-03-29T09:44:53;4.30;;;2.70;;
39266;SDS011;24967;51.154;13.812;2023-03-29T09:47:22;5.60;;;3.28;;
39266;SDS011;24967;51.154;13.812;2023-03-29T09:49:54;5.07;;;3.17;;
39266;SDS011;24967;51.154;13.812;2023-03-29T09:52:26;4.43;;;3.08;;
39266;SDS011;24967;51.154;13.812;2023-03-29T09:54:52;5.22;;;3.00;;
39266;SDS011;24967;51.154;13.812;2023-03-29T09:57:19;4.78;;;3.10;;
39266;SDS011;24967;51.154;13.812;2023-03-29T09:59:46;6.60;;;2.85;;
39266;SDS011;24967;51.154;13.812;2023-03-29T10:02:17;3.40;;;2.83;;
39266;SDS011;24967;51.154;13.812;2023-03-29T10:04:45;5.10;;;3.03;;
39266;SDS011;24967;51.154;13.812;2023-03-29T10:07:19;4.35;;;3.42;;
39266;SDS011;24967;51.154;13.812;2023-03-29T10:09:48;5.93;;;3.10;;
39266;SDS011;24967;51.154;13.812;2023-03-29T10:12:16;5.45;;;3.53;;
39266;SDS011;24967;51.154;13.812;2023-03-29T10:14:45;4.00;;;3.58;;
39266;SDS011;24967;51.154;13.812;2023-03-29T10:17:15;4.43;;;3.33;;
39266;SDS011;24967;51.154;13.812;2023-03-29T10:19:47;5.60;;;3.30;;
39266;SDS011;24967;51.154;13.812;2023-03-29T10:22:15;4.38;;;2.97;;
39266;SDS011;24967;51.154;13.812;2023-03-29T10:24:48;4.32;;;3.20;;
39266;SDS011;24967;51.154;13.812;2023-03-29T10:27:15;2.72;;;2.58;;
39266;SDS011;24967;51.154;13.812;2023-03-29T10:29:47;3.08;;;2.80;;
39266;SDS011;24967;51.154;13.812;2023-03-29T10:32:15;4.20;;;2.90;;
39266;SDS011;24967;51.154;13.812;2023-03-29T10:34:48;3.92;;;3.28;;
39266;SDS011;24967;51.154;13.812;2023-03-29T10:37:17;5.40;;;3.17;;
39266;SDS011;24967;51.154;13.812;2023-03-29T10:39:48;4.20;;;3.10;;
39266;SDS011;24967;51.154;13.812;2023-03-29T10:42:16;5.20;;;3.10;;
39266;SDS011;24967;51.154;13.812;2023-03-29T10:44:51;5.10;;;3.47;;
39266;SDS011;24967;51.154;13.812;2023-03-29T10:47:19;6.57;;;3.42;;
39266;SDS011;24967;51.154;13.812;2023-03-29T10:49:48;4.68;;;3.05;;
39266;SDS011;24967;51.154;13.812;2023-03-29T10:52:16;3.42;;;3.10;;
39266;SDS011;24967;51.154;13.812;2023-03-29T10:54:43;3.95;;;2.90;;
39266;SDS011;24967;51.154;13.812;2023-03-29T10:57:13;3.47;;;3.17;;
39266;SDS011;24967;51.154;13.812;2023-03-29T10:59:46;3.83;;;2.92;;
39266;SDS011;24967;51.154;13.812;2023-03-29T11:02:41;4.63;;;3.22;;
39266;SDS011;24967;51.154;13.812;2023-03-29T11:05:26;5.57;;;3.50;;
39266;SDS011;24967;51.154;13.812;2023-03-29T11:08:01;6.13;;;3.65;;
39266;SDS011;24967;51.154;13.812;2023-03-29T11:13:11;4.47;;;3.42;;
39266;SDS011;24967;51.154;13.812;2023-03-29T11:15:50;5.05;;;3.70;;
39266;SDS011;24967;51.154;13.812;2023-03-29T11:18:35;5.05;;;3.95;;
39266;SDS011;24967;51.154;13.812;2023-03-29T11:21:23;5.88;;;3.85;;
39266;SDS011;24967;51.154;13.812;2023-03-29T11:24:00;4.80;;;4.30;;
39266;SDS011;24967;51.154;13.812;2023-03-29T11:26:45;4.88;;;4.38;;
39266;SDS011;24967;51.154;13.812;2023-03-29T11:29:26;4.80;;;4.32;;
39266;SDS011;24967;51.154;13.812;2023-03-29T11:31:57;4.70;;;4.28;;
39266;SDS011;24967;51.154;13.812;2023-03-29T11:34:33;5.03;;;4.20;;
39266;SDS011;24967;51.154;13.812;2023-03-29T11:37:13;5.38;;;4.85;;
39266;SDS011;24967;51.154;13.812;2023-03-29T11:39:45;5.68;;;4.80;;
39266;SDS011;24967;51.154;13.812;2023-03-29T11:42:24;7.65;;;5.88;;
39266;SDS011;24967;51.154;13.812;2023-03-29T11:44:57;7.07;;;5.53;;
39266;SDS011;24967;51.154;13.812;2023-03-29T11:47:29;5.07;;;4.63;;
39266;SDS011;24967;51.154;13.812;2023-03-29T11:49:58;6.95;;;5.18;;
39266;SDS011;24967;51.154;13.812;2023-03-29T11:52:28;6.78;;;5.10;;
39266;SDS011;24967;51.154;13.812;2023-03-29T11:54:59;6.30;;;5.70;;
39266;SDS011;24967;51.154;13.812;2023-03-29T11:57:30;5.75;;;5.22;;
39266;SDS011;24967;51.154;13.812;2023-03-29T12:00:03;6.75;;;5.28;;
39266;SDS011;24967;51.154;13.812;2023-03-29T12:02:36;10.68;;;5.40;;
39266;SDS011;24967;51.154;13.812;2023-03-29T12:07:39;8.38;;;5.50;;
39266;SDS011;24967;51.154;13.812;2023-03-29T12:10:13;8.20;;;5.47;;
39266;SDS011;24967;51.154;13.812;2023-03-29T12:12:44;8.82;;;6.05;;
39266;SDS011;24967;51.154;13.812;2023-03-29T12:15:16;7.60;;;5.88;;
39266;SDS011;24967;51.154;13.812;2023-03-29T12:17:46;7.80;;;5.88;;
39266;SDS011;24967;51.154;13.812;2023-03-29T12:20:20;6.50;;;5.78;;
39266;SDS011;24967;51.154;13.812;2023-03-29T12:25:18;7.93;;;6.13;;
39266;SDS011;24967;51.154;13.812;2023-03-29T12:27:50;6.00;;;5.30;;
39266;SDS011;24967;51.154;13.812;2023-03-29T12:30:33;8.52;;;5.70;;
39266;SDS011;24967;51.154;13.812;2023-03-29T12:33:12;9.63;;;6.45;;
39266;SDS011;24967;51.154;13.812;2023-03-29T12:36:04;7.63;;;6.13;;
39266;SDS011;24967;51.154;13.812;2023-03-29T12:38:40;8.80;;;6.32;;
39266;SDS011;24967;51.154;13.812;2023-03-29T12:41:10;10.45;;;6.40;;
39266;SDS011;24967;51.154;13.812;2023-03-29T12:43:42;9.52;;;7.00;;
39266;SDS011;24967;51.154;13.812;2023-03-29T12:46:13;7.22;;;5.95;;
39266;SDS011;24967;51.154;13.812;2023-03-29T12:48:43;8.27;;;6.13;;
39266;SDS011;24967;51.154;13.812;2023-03-29T12:51:12;8.80;;;6.50;;
39266;SDS011;24967;51.154;13.812;2023-03-29T12:53:41;8.75;;;6.00;;
39266;SDS011;24967;51.154;13.812;2023-03-29T12:56:11;8.68;;;6.25;;
39266;SDS011;24967;51.154;13.812;2023-03-29T12:58:54;10.27;;;6.90;;
39266;SDS011;24967;51.154;13.812;2023-03-29T13:01:32;10.55;;;7.53;;
39266;SDS011;24967;51.154;13.812;2023-03-29T13:04:15;10.10;;;7.10;;
39266;SDS011;24967;51.154;13.812;2023-03-29T13:06:57;9.88;;;7.43;;
39266;SDS011;24967;51.154;13.812;2023-03-29T13:09:28;10.13;;;7.05;;
39266;SDS011;24967;51.154;13.812;2023-03-29T13:12:02;9.95;;;7.50;;
39266;SDS011;24967;51.154;13.812;2023-03-29T13:14:33;10.25;;;6.90;;
39266;SDS011;24967;51.154;13.812;2023-03-29T13:17:04;7.68;;;6.72;;
39266;SDS011;24967;51.154;13.812;2023-03-29T13:19:33;7.20;;;6.07;;
39266;SDS011;24967;51.154;13.812;2023-03-29T13:22:06;8.07;;;6.00;;
39266;SDS011;24967;51.154;13.812;2023-03-29T13:24:54;9.98;;;6.90;;
39266;SDS011;24967;51.154;13.812;2023-03-29T13:27:36;10.00;;;7.55;;
39266;SDS011;24967;51.154;13.812;2023-03-29T13:30:16;9.23;;;7.78;;
39266;SDS011;24967;51.154;13.812;2023-03-29T13:32:51;8.68;;;7.00;;
39266;SDS011;24967;51.154;13.812;2023-03-29T13:35:29;14.27;;;8.05;;
39266;SDS011;24967;51.154;13.812;2023-03-29T13:38:08;9.73;;;7.85;;
39266;SDS011;24967;51.154;13.812;2023-03-29T13:40:44;11.35;;;8.02;;
39266;SDS011;24967;51.154;13.812;2023-03-29T13:43:19;11.75;;;7.07;;
39266;SDS011;24967;51.154;13.812;2023-03-29T13:46:02;12.20;;;8.60;;
39266;SDS011;24967;51.154;13.812;2023-03-29T13:48:49;13.85;;;9.10;;
39266;SDS011;24967;51.154;13.812;2023-03-29T13:51:22;9.52;;;7.97;;
39266;SDS011;24967;51.154;13.812;2023-03-29T13:53:57;11.75;;;7.72;;
39266;SDS011;24967;51.154;13.812;2023-03-29T13:56:30;10.55;;;8.02;;
39266;SDS011;24967;51.154;13.812;2023-03-29T13:59:03;11.38;;;7.57;;
39266;SDS011;24967;51.154;13.812;2023-03-29T14:01:36;9.48;;;7.65;;
39266;SDS011;24967;51.154;13.812;2023-03-29T14:04:10;13.95;;;8.90;;
39266;SDS011;24967;51.154;13.812;2023-03-29T14:06:42;10.20;;;7.93;;
39266;SDS011;24967;51.154;13.812;2023-03-29T14:09:15;11.77;;;8.00;;
39266;SDS011;24967;51.154;13.812;2023-03-29T14:11:43;12.90;;;8.40;;
39266;SDS011;24967;51.154;13.812;2023-03-29T14:14:11;10.90;;;8.23;;
39266;SDS011;24967;51.154;13.812;2023-03-29T14:16:38;10.48;;;8.25;;
39266;SDS011;24967;51.154;13.812;2023-03-29T14:19:10;12.00;;;8.20;;
39266;SDS011;24967;51.154;13.812;2023-03-29T14:21:42;12.90;;;8.43;;
39266;SDS011;24967;51.154;13.812;2023-03-29T14:24:10;12.43;;;8.50;;
39266;SDS011;24967;51.154;13.812;2023-03-29T14:26:42;22.13;;;14.27;;
39266;SDS011;24967;51.154;13.812;2023-03-29T14:29:11;17.63;;;13.00;;
39266;SDS011;24967;51.154;13.812;2023-03-29T14:31:38;15.52;;;9.57;;
39266;SDS011;24967;51.154;13.812;2023-03-29T14:34:09;12.63;;;9.15;;
39266;SDS011;24967;51.154;13.812;2023-03-29T14:36:40;12.75;;;9.02;;
39266;SDS011;24967;51.154;13.812;2023-03-29T14:39:10;12.25;;;9.02;;
39266;SDS011;24967;51.154;13.812;2023-03-29T14:41:42;13.05;;;8.90;;
39266;SDS011;24967;51.154;13.812;2023-03-29T14:44:14;11.88;;;8.30;;
39266;SDS011;24967;51.154;13.812;2023-03-29T14:46:42;12.43;;;9.30;;
39266;SDS011;24967;51.154;13.812;2023-03-29T14:49:11;11.63;;;8.63;;
39266;SDS011;24967;51.154;13.812;2023-03-29T14:51:42;11.33;;;8.03;;
39266;SDS011;24967;51.154;13.812;2023-03-29T14:54:15;8.38;;;7.03;;
39266;SDS011;24967;51.154;13.812;2023-03-29T14:56:45;12.13;;;7.88;;
39266;SDS011;24967;51.154;13.812;2023-03-29T14:59:20;9.77;;;7.43;;
39266;SDS011;24967;51.154;13.812;2023-03-29T15:01:51;12.60;;;7.15;;
39266;SDS011;24967;51.154;13.812;2023-03-29T15:04:17;11.77;;;7.15;;
39266;SDS011;24967;51.154;13.812;2023-03-29T15:06:46;10.60;;;7.07;;
39266;SDS011;24967;51.154;13.812;2023-03-29T15:09:15;7.97;;;6.65;;
39266;SDS011;24967;51.154;13.812;2023-03-29T15:14:18;12.82;;;6.85;;
39266;SDS011;24967;51.154;13.812;2023-03-29T15:16:48;11.18;;;6.65;;